createdAt,value
2018-10-18T00:01:12.713Z,112.47
2018-10-18T00:03:41.094Z,131.33
2018-10-18T00:06:09.429Z,129.10
2018-10-18T00:08:37.669Z,122.63
2018-10-18T00:11:06.433Z,118.47
2018-10-18T00:13:35.221Z,115.03
2018-10-18T00:16:03.530Z,117.70
2018-10-18T00:18:31.850Z,116.00
2018-10-18T00:21:00.131Z,117.70
2018-10-18T00:23:28.411Z,115.57
2018-10-18T00:25:57.933Z,122.40
2018-10-18T00:28:26.224Z,111.33
2018-10-18T00:30:54.510Z,114.30
2018-10-18T00:33:22.818Z,113.70
2018-10-18T00:35:51.179Z,117.97
2018-10-18T00:38:19.525Z,113.43
2018-10-18T00:40:47.909Z,112.67
2018-10-18T00:43:16.198Z,116.57
2018-10-18T00:45:44.478Z,115.37
2018-10-18T00:48:12.952Z,142.50
2018-10-18T00:50:43.161Z,143.47
2018-10-18T00:53:11.449Z,125.50
2018-10-18T00:55:39.774Z,145.67
2018-10-18T00:58:08.172Z,153.77
2018-10-18T01:00:37.522Z,140.37
2018-10-18T01:03:06.046Z,147.97
2018-10-18T01:05:34.335Z,146.70
2018-10-18T01:08:02.691Z,144.40
2018-10-18T01:10:31.000Z,134.57
2018-10-18T01:12:59.340Z,141.60
2018-10-18T01:15:27.677Z,128.10
2018-10-18T01:17:55.981Z,174.63
2018-10-18T01:20:24.278Z,237.70
2018-10-18T01:22:52.678Z,251.87
2018-10-18T01:25:21.013Z,258.67
2018-10-18T01:27:49.306Z,211.30
2018-10-18T01:30:17.598Z,254.87
2018-10-18T01:32:45.929Z,291.23
2018-10-18T01:35:14.233Z,306.97
2018-10-18T01:37:42.650Z,268.80
2018-10-18T01:40:10.974Z,260.40
2018-10-18T01:42:39.267Z,233.30
2018-10-18T01:45:08.640Z,199.17
2018-10-18T01:47:37.007Z,181.43
2018-10-18T01:50:06.780Z,155.47
2018-10-18T01:52:35.063Z,168.30
2018-10-18T01:55:03.766Z,135.17
2018-10-18T01:57:32.052Z,131.03
2018-10-18T02:00:01.467Z,119.00
2018-10-18T02:02:29.766Z,118.00
2018-10-18T02:04:58.049Z,139.93
2018-10-18T02:07:26.338Z,123.30
2018-10-18T02:09:54.665Z,100.70
2018-10-18T02:12:22.950Z,98.53
2018-10-18T02:14:51.273Z,106.53
2018-10-18T02:17:19.574Z,105.83
2018-10-18T02:19:47.879Z,83.43
2018-10-18T02:22:16.158Z,87.37
2018-10-18T02:24:45.545Z,85.33
2018-10-18T02:27:13.833Z,92.93
2018-10-18T02:29:42.126Z,81.00
2018-10-18T02:32:10.436Z,80.63
2018-10-18T02:34:38.705Z,83.87
2018-10-18T02:37:06.985Z,65.60
2018-10-18T02:39:35.347Z,67.80
2018-10-18T02:42:03.632Z,73.80
2018-10-18T02:44:31.894Z,71.60
2018-10-18T02:47:00.190Z,67.87
2018-10-18T02:49:28.447Z,66.77
2018-10-18T02:51:56.732Z,60.53
2018-10-18T02:54:25.095Z,69.87
2018-10-18T02:56:53.369Z,65.10
2018-10-18T02:59:21.633Z,56.20
2018-10-18T03:01:49.933Z,61.47
2018-10-18T03:04:18.203Z,66.83
2018-10-18T03:06:46.481Z,66.43
2018-10-18T03:09:14.774Z,60.70
2018-10-18T03:11:43.038Z,59.23
2018-10-18T03:14:11.311Z,57.30
2018-10-18T03:16:39.607Z,59.53
2018-10-18T03:19:07.874Z,62.90
2018-10-18T03:21:36.146Z,60.33
2018-10-18T03:24:04.791Z,55.60
2018-10-18T03:26:33.046Z,67.63
2018-10-18T03:29:01.312Z,62.30
2018-10-18T03:31:29.602Z,67.80
2018-10-18T03:33:57.897Z,67.23
2018-10-18T03:36:26.203Z,66.23
2018-10-18T03:38:54.762Z,61.73
2018-10-18T03:41:23.463Z,68.00
2018-10-18T03:43:51.723Z,71.97
2018-10-18T03:46:20.062Z,59.87
2018-10-18T03:48:48.362Z,68.10
2018-10-18T03:51:16.633Z,62.77
2018-10-18T03:53:44.934Z,68.43
2018-10-18T03:56:13.260Z,72.77
2018-10-18T03:58:41.526Z,66.17
2018-10-18T04:01:09.805Z,66.90
2018-10-18T04:03:38.075Z,68.77
2018-10-18T04:06:06.412Z,71.07
2018-10-18T04:08:34.646Z,70.90
2018-10-18T04:11:02.906Z,72.27
2018-10-18T04:13:31.175Z,65.60
2018-10-18T04:15:59.678Z,70.60
2018-10-18T04:18:27.989Z,71.30
2018-10-18T04:20:56.210Z,76.37
2018-10-18T04:23:31.994Z,67.33
2018-10-18T04:26:00.866Z,67.40
2018-10-18T04:28:29.373Z,59.27
2018-10-18T04:30:57.750Z,58.57
2018-10-18T04:33:26.058Z,53.80
2018-10-18T04:35:54.350Z,58.63
2018-10-18T04:38:22.650Z,56.97
2018-10-18T04:40:50.901Z,50.73
2018-10-18T04:43:19.174Z,48.83
2018-10-18T04:45:47.462Z,44.03
2018-10-18T04:48:15.916Z,52.00
2018-10-18T04:50:44.118Z,46.47
2018-10-18T04:53:12.650Z,47.60
2018-10-18T04:55:40.967Z,57.67
2018-10-18T04:58:09.241Z,50.60
2018-10-18T05:00:37.510Z,56.70
2018-10-18T05:03:05.777Z,50.77
2018-10-18T05:05:48.366Z,54.80
2018-10-18T05:08:16.656Z,53.03
2018-10-18T05:10:44.918Z,53.00
2018-10-18T05:13:13.285Z,67.30
2018-10-18T05:15:41.503Z,52.60
2018-10-18T05:18:09.770Z,61.43
2018-10-18T05:20:38.137Z,61.03
2018-10-18T05:23:06.802Z,58.63
2018-10-18T05:25:35.200Z,60.20
2018-10-18T05:28:03.996Z,57.70
2018-10-18T05:30:32.337Z,55.43
2018-10-18T05:33:00.831Z,54.20
2018-10-18T05:35:29.138Z,62.40
2018-10-18T05:37:57.454Z,54.10
2018-10-18T05:40:25.726Z,62.23
2018-10-18T05:42:54.116Z,60.67
2018-10-18T05:45:22.378Z,59.43
2018-10-18T05:47:51.657Z,51.40
2018-10-18T05:50:20.102Z,55.23
2018-10-18T05:52:48.377Z,54.40
2018-10-18T05:55:16.685Z,59.57
2018-10-18T05:57:44.948Z,50.70
2018-10-18T06:00:15.995Z,51.27
2018-10-18T06:02:44.583Z,45.53
2018-10-18T06:05:17.784Z,49.87
2018-10-18T06:07:46.421Z,55.63
2018-10-18T06:10:27.659Z,51.50
2018-10-18T06:12:56.053Z,46.20
2018-10-18T06:15:24.562Z,45.87
2018-10-18T06:17:52.874Z,44.23
2018-10-18T06:20:21.853Z,47.50
2018-10-18T06:22:50.176Z,42.13
2018-10-18T06:25:18.567Z,43.80
2018-10-18T06:27:46.765Z,46.83
2018-10-18T06:30:16.372Z,46.90
2018-10-18T06:32:44.869Z,50.73
2018-10-18T06:35:14.504Z,50.20
2018-10-18T06:37:42.781Z,49.60
2018-10-18T06:40:16.018Z,45.70
2018-10-18T06:42:44.314Z,45.10
2018-10-18T06:45:17.031Z,47.10
2018-10-18T06:47:46.569Z,47.83
2018-10-18T06:50:19.094Z,50.10
2018-10-18T06:52:47.421Z,47.67
2018-10-18T06:55:15.777Z,42.73
2018-10-18T06:57:44.550Z,45.37
2018-10-18T07:00:16.967Z,45.10
2018-10-18T07:02:45.498Z,40.40
2018-10-18T07:05:14.865Z,44.23
2018-10-18T07:07:44.790Z,49.17
2018-10-18T07:10:13.166Z,55.97
2018-10-18T07:12:42.870Z,55.00
2018-10-18T07:15:13.201Z,61.50
2018-10-18T07:17:42.409Z,50.50
2018-10-18T07:20:11.073Z,46.97
2018-10-18T07:22:39.891Z,56.43
2018-10-18T07:25:10.760Z,56.93
2018-10-18T07:27:39.601Z,64.07
2018-10-18T07:30:09.452Z,58.33
2018-10-18T07:32:37.710Z,57.13
2018-10-18T07:35:08.687Z,52.40
2018-10-18T07:37:37.014Z,51.77
2018-10-18T07:40:06.474Z,57.43
2018-10-18T07:42:34.769Z,57.00
2018-10-18T07:45:03.130Z,66.23
2018-10-18T07:47:31.444Z,63.30
2018-10-18T07:49:59.682Z,64.93
2018-10-18T07:52:27.941Z,61.50
2018-10-18T07:54:56.110Z,64.43
2018-10-18T07:57:24.426Z,46.37
2018-10-18T07:59:53.807Z,56.97
2018-10-18T08:02:22.046Z,54.20
2018-10-18T08:04:50.338Z,52.00
2018-10-18T08:07:18.674Z,51.13
2018-10-18T08:09:46.967Z,35.73
2018-10-18T08:12:15.256Z,28.57
2018-10-18T08:14:43.610Z,30.00
2018-10-18T08:17:13.132Z,27.60
2018-10-18T08:19:41.369Z,15.33
2018-10-18T08:22:09.707Z,16.60
2018-10-18T08:24:38.014Z,9.80
2018-10-18T08:27:06.333Z,8.57
2018-10-18T08:29:34.682Z,4.53
2018-10-18T08:32:02.986Z,4.40
2018-10-18T08:34:31.313Z,4.10
2018-10-18T08:36:59.656Z,3.53
2018-10-18T08:39:27.893Z,4.23
2018-10-18T08:41:57.279Z,6.23
2018-10-18T08:44:25.916Z,5.67
2018-10-18T08:46:54.154Z,5.13
2018-10-18T08:49:22.452Z,10.60
2018-10-18T08:51:50.751Z,7.73
2018-10-18T08:54:20.074Z,13.50
2018-10-18T08:56:48.498Z,9.07
2018-10-18T08:59:16.840Z,10.10
2018-10-18T09:01:45.134Z,10.33
2018-10-18T09:04:13.438Z,12.87
2018-10-18T09:06:41.780Z,9.27
2018-10-18T09:09:10.340Z,10.70
2018-10-18T09:11:38.696Z,11.37
2018-10-18T09:14:07.431Z,16.53
2018-10-18T09:16:36.873Z,10.83
2018-10-18T09:19:05.642Z,11.20
2018-10-18T09:21:35.238Z,16.40
2018-10-18T09:24:03.578Z,16.30
2018-10-18T09:26:31.930Z,12.00
2018-10-18T09:29:00.250Z,16.80
2018-10-18T09:31:30.521Z,8.80
2018-10-18T09:33:58.834Z,17.13
2018-10-18T09:36:28.185Z,13.40
2018-10-18T09:38:56.503Z,10.70
2018-10-18T09:41:24.802Z,13.43
2018-10-18T09:43:58.370Z,10.37
2018-10-18T09:46:26.902Z,13.03
2018-10-18T09:48:55.357Z,10.47
2018-10-18T09:51:23.597Z,15.33
2018-10-18T09:53:51.873Z,17.13
2018-10-18T09:56:20.239Z,6.83
2018-10-18T09:58:48.530Z,8.30
2018-10-18T10:01:22.194Z,9.47
2018-10-18T10:03:50.486Z,11.40
2018-10-18T10:06:18.773Z,9.77
2018-10-18T10:08:47.061Z,10.67
2018-10-18T10:11:15.374Z,5.90
2018-10-18T10:13:43.759Z,5.37
2018-10-18T10:16:11.962Z,9.40
2018-10-18T10:18:41.338Z,4.63
2018-10-18T10:21:09.662Z,8.70
2018-10-18T10:23:37.975Z,5.37
2018-10-18T10:26:06.278Z,8.23
2018-10-18T10:28:34.607Z,7.37
2018-10-18T10:31:03.016Z,9.27
2018-10-18T10:33:31.259Z,11.50
2018-10-18T10:35:59.570Z,13.50
2018-10-18T10:38:27.857Z,9.07
2018-10-18T10:40:56.197Z,13.80
2018-10-18T10:43:24.533Z,15.40
2018-10-18T10:45:52.956Z,8.53
2018-10-18T10:48:21.224Z,10.73
2018-10-18T10:50:49.491Z,5.23
2018-10-18T10:53:17.790Z,4.03
2018-10-18T10:55:46.087Z,4.67
2018-10-18T10:58:14.472Z,16.23
2018-10-18T11:01:16.767Z,10.80
2018-10-18T11:03:46.329Z,7.20
2018-10-18T11:06:14.867Z,8.87
2018-10-18T11:08:44.238Z,8.23
2018-10-18T11:11:13.467Z,7.20
2018-10-18T11:13:41.765Z,7.97
2018-10-18T11:16:10.108Z,12.93
2018-10-18T11:18:39.011Z,5.70
2018-10-18T11:21:08.435Z,8.57
2018-10-18T11:23:37.698Z,6.23
2018-10-18T11:26:06.101Z,12.63
2018-10-18T11:28:34.354Z,9.07
2018-10-18T11:31:02.678Z,8.83
2018-10-18T11:33:31.061Z,4.73
2018-10-18T11:35:59.590Z,9.40
2018-10-18T11:38:27.940Z,9.90
2018-10-18T11:40:56.254Z,8.60
2018-10-18T11:43:24.575Z,9.03
2018-10-18T11:45:52.882Z,10.27
2018-10-18T11:48:21.231Z,6.37
2018-10-18T11:50:49.511Z,6.87
2018-10-18T11:53:17.791Z,7.00
2018-10-18T11:55:46.126Z,9.13
2018-10-18T11:58:14.666Z,3.33
2018-10-18T12:00:42.966Z,6.10
2018-10-18T12:03:11.366Z,9.23
2018-10-18T12:05:40.010Z,5.73
2018-10-18T12:08:08.342Z,9.20
2018-10-18T12:10:36.675Z,6.77
2018-10-18T12:13:05.003Z,10.83
2018-10-18T12:15:33.289Z,10.47
2018-10-18T12:18:01.611Z,5.50
2018-10-18T12:20:29.891Z,7.10
2018-10-18T12:22:58.292Z,4.70
2018-10-18T12:25:26.545Z,10.00
2018-10-18T12:27:54.833Z,5.20
2018-10-18T12:30:23.134Z,7.63
2018-10-18T12:32:51.418Z,7.43
2018-10-18T12:35:19.730Z,10.87
2018-10-18T12:37:48.031Z,7.50
2018-10-18T12:40:16.396Z,4.77
2018-10-18T12:42:45.610Z,5.90
2018-10-18T12:45:14.078Z,11.60
2018-10-18T12:47:42.405Z,16.13
2018-10-18T12:50:11.719Z,15.00
2018-10-18T12:52:40.003Z,644.37
2018-10-18T12:55:08.306Z,200.07
2018-10-18T12:57:36.589Z,22.77
2018-10-18T13:00:05.761Z,13.73
2018-10-18T13:02:34.068Z,17.33
2018-10-18T13:05:02.327Z,9.27
2018-10-18T13:07:30.665Z,5.07
2018-10-18T13:09:58.953Z,8.63
2018-10-18T13:12:27.559Z,11.33
2018-10-18T13:14:55.722Z,9.33
2018-10-18T13:17:24.006Z,6.10
2018-10-18T13:19:52.348Z,8.20
2018-10-18T13:22:20.623Z,5.93
2018-10-18T13:24:48.913Z,8.70
2018-10-18T13:27:17.188Z,9.70
2018-10-18T13:29:45.479Z,6.67
2018-10-18T13:32:14.792Z,5.33
2018-10-18T13:34:43.342Z,7.33
2018-10-18T13:37:11.714Z,5.33
2018-10-18T13:39:40.018Z,5.40
2018-10-18T13:42:08.380Z,7.40
2018-10-18T13:44:37.753Z,8.37
2018-10-18T13:47:06.178Z,5.63
2018-10-18T13:49:34.490Z,4.63
2018-10-18T13:52:02.782Z,10.40
2018-10-18T13:54:31.065Z,7.33
2018-10-18T13:56:59.370Z,6.60
2018-10-18T13:59:38.991Z,4.10
2018-10-18T14:02:08.470Z,4.70
2018-10-18T14:04:36.645Z,3.63
2018-10-18T14:07:04.950Z,5.47
2018-10-18T14:09:33.234Z,5.13
2018-10-18T14:12:01.525Z,5.70
2018-10-18T14:14:29.821Z,4.40
2018-10-18T14:16:58.184Z,8.50
2018-10-18T14:19:26.381Z,7.60
2018-10-18T14:21:54.705Z,10.70
2018-10-18T14:24:22.990Z,4.00
2018-10-18T14:26:51.305Z,2.90
2018-10-18T14:29:20.884Z,4.17
2018-10-18T14:31:49.144Z,7.60
2018-10-18T14:34:17.469Z,3.40
2018-10-18T14:36:45.750Z,2.97
2018-10-18T14:39:14.031Z,5.57
2018-10-18T14:41:42.342Z,4.00
2018-10-18T14:44:10.677Z,7.87
2018-10-18T14:46:38.921Z,2.63
2018-10-18T14:49:07.230Z,5.77
2018-10-18T14:51:35.694Z,9.00
2018-10-18T14:54:03.993Z,11.83
2018-10-18T14:56:32.290Z,5.00
2018-10-18T14:59:00.621Z,5.30
2018-10-18T15:01:29.213Z,5.13
2018-10-18T15:03:58.598Z,4.93
2018-10-18T15:06:30.070Z,5.73
2018-10-18T15:08:58.374Z,3.93
2018-10-18T15:11:26.661Z,7.47
2018-10-18T15:13:55.086Z,5.33
2018-10-18T15:16:23.370Z,2.60
2018-10-18T15:18:51.722Z,4.37
2018-10-18T15:21:19.995Z,8.23
2018-10-18T15:23:48.298Z,10.40
2018-10-18T15:26:16.666Z,3.90
2018-10-18T15:28:44.873Z,4.83
2018-10-18T15:31:13.181Z,2.67
2018-10-18T15:33:41.505Z,5.30
2018-10-18T15:36:10.819Z,2.60
2018-10-18T15:38:39.358Z,5.47
2018-10-18T15:41:07.598Z,6.37
2018-10-18T15:43:35.818Z,6.33
2018-10-18T15:46:04.162Z,1.73
2018-10-18T15:48:32.451Z,3.67
2018-10-18T15:51:00.768Z,4.23
2018-10-18T15:53:29.162Z,4.42
2018-10-18T15:55:57.398Z,8.53
2018-10-18T15:58:25.695Z,2.57
2018-10-18T16:00:53.996Z,4.43
2018-10-18T16:03:22.288Z,3.67
2018-10-18T16:05:50.607Z,11.60
2018-10-18T16:08:18.893Z,5.77
2018-10-18T16:10:47.225Z,4.03
2018-10-18T16:13:15.549Z,4.20
2018-10-18T16:15:43.876Z,4.70
2018-10-18T16:18:12.202Z,5.40
2018-10-18T16:20:40.498Z,6.43
2018-10-18T16:23:08.880Z,5.27
2018-10-18T16:25:37.230Z,10.83
2018-10-18T16:28:05.551Z,7.37
2018-10-18T16:30:33.894Z,10.73
2018-10-18T16:33:02.190Z,6.10
2018-10-18T16:35:30.494Z,12.90
2018-10-18T16:37:58.796Z,5.10
2018-10-18T16:40:27.934Z,9.93
2018-10-18T16:42:56.283Z,5.80
2018-10-18T16:45:24.654Z,9.80
2018-10-18T16:47:53.068Z,4.60
2018-10-18T16:50:21.334Z,10.40
2018-10-18T16:52:49.626Z,7.57
2018-10-18T16:55:18.170Z,4.53
2018-10-18T16:57:46.486Z,12.33
2018-10-18T17:00:14.840Z,6.50
2018-10-18T17:02:43.071Z,2.50
2018-10-18T17:05:11.363Z,5.27
2018-10-18T17:07:39.765Z,4.67
2018-10-18T17:10:08.133Z,5.10
2018-10-18T17:12:36.418Z,2.83
2018-10-18T17:15:05.719Z,6.37
2018-10-18T17:17:34.056Z,8.70
2018-10-18T17:20:02.362Z,5.27
2018-10-18T17:22:30.645Z,3.10
2018-10-18T17:24:59.334Z,5.57
2018-10-18T17:27:27.728Z,6.00
2018-10-18T17:29:55.923Z,7.87
2018-10-18T17:32:24.241Z,5.20
2018-10-18T17:34:52.537Z,6.23
2018-10-18T17:37:20.894Z,4.93
2018-10-18T17:39:49.286Z,4.77
2018-10-18T17:42:17.660Z,8.67
2018-10-18T17:44:45.915Z,3.73
2018-10-18T17:47:14.259Z,7.50
2018-10-18T17:49:42.522Z,10.97
2018-10-18T17:52:10.836Z,3.43
2018-10-18T17:54:39.143Z,2.83
2018-10-18T17:57:07.466Z,6.70
2018-10-18T17:59:35.768Z,2.30
2018-10-18T18:02:04.117Z,5.47
2018-10-18T18:04:33.447Z,3.90
2018-10-18T18:07:01.904Z,4.83
2018-10-18T18:09:30.115Z,12.67
2018-10-18T18:11:58.418Z,3.57
2018-10-18T18:14:27.106Z,4.03
2018-10-18T18:16:56.575Z,3.47
2018-10-18T18:19:24.879Z,7.93
2018-10-18T18:21:55.212Z,7.63
2018-10-18T18:24:23.952Z,3.93
2018-10-18T18:26:52.288Z,9.90
2018-10-18T18:29:20.570Z,7.20
2018-10-18T18:31:48.892Z,5.60
2018-10-18T18:34:17.162Z,13.90
2018-10-18T18:36:45.450Z,13.93
2018-10-18T18:39:13.732Z,7.73
2018-10-18T18:41:42.030Z,10.37
2018-10-18T18:44:10.306Z,16.00
2018-10-18T18:46:38.736Z,8.90
2018-10-18T18:49:07.196Z,11.40
2018-10-18T18:51:35.769Z,10.73
2018-10-18T18:54:04.011Z,6.47
2018-10-18T18:56:32.313Z,7.70
2018-10-18T18:59:00.586Z,8.87
2018-10-18T19:01:28.878Z,6.73
2018-10-18T19:03:57.163Z,8.73
2018-10-18T19:06:25.449Z,8.60
2018-10-18T19:08:53.777Z,6.97
2018-10-18T19:11:22.022Z,10.07
2018-10-18T19:13:50.323Z,6.87
2018-10-18T19:16:18.598Z,10.83
2018-10-18T19:18:46.862Z,6.33
2018-10-18T19:21:15.150Z,6.37
2018-10-18T19:23:43.438Z,9.83
2018-10-18T19:26:11.861Z,5.17
2018-10-18T19:28:40.114Z,8.80
2018-10-18T19:31:08.370Z,13.27
2018-10-18T19:33:36.651Z,7.33
2018-10-18T19:36:05.962Z,10.23
2018-10-18T19:38:34.385Z,10.40
2018-10-18T19:41:02.617Z,9.50
2018-10-18T19:43:30.894Z,15.00
2018-10-18T19:45:59.216Z,9.60
2018-10-18T19:48:27.599Z,10.17
2018-10-18T19:50:56.901Z,11.47
2018-10-18T19:53:25.164Z,9.33
2018-10-18T19:55:53.490Z,7.60
2018-10-18T19:58:22.100Z,12.80
2018-10-18T20:00:50.745Z,11.53
2018-10-18T20:03:19.111Z,7.00
2018-10-18T20:05:47.383Z,5.03
2018-10-18T20:08:15.747Z,5.10
2018-10-18T20:10:43.974Z,9.70
2018-10-18T20:13:12.250Z,10.53
2018-10-18T20:15:40.526Z,6.50
2018-10-18T20:18:08.873Z,6.30
2018-10-18T20:20:37.261Z,12.30
2018-10-18T20:23:05.558Z,7.37
2018-10-18T20:25:33.888Z,12.53
2018-10-18T20:28:02.126Z,8.60
2018-10-18T20:30:30.574Z,12.57
2018-10-18T20:32:59.924Z,14.70
2018-10-18T20:35:28.199Z,6.33
2018-10-18T20:37:56.572Z,12.07
2018-10-18T20:40:24.895Z,11.40
2018-10-18T20:42:53.169Z,10.17
2018-10-18T20:45:29.522Z,10.10
2018-10-18T20:47:58.317Z,7.87
2018-10-18T20:50:26.470Z,13.00
2018-10-18T20:52:54.802Z,9.97
2018-10-18T20:55:23.361Z,8.30
2018-10-18T20:57:51.647Z,13.77
2018-10-18T21:00:19.926Z,10.07
2018-10-18T21:02:48.213Z,5.13
2018-10-18T21:05:16.505Z,21.80
2018-10-18T21:07:44.798Z,11.70
2018-10-18T21:11:37.499Z,11.03
2018-10-18T21:14:06.518Z,9.20
2018-10-18T21:16:34.818Z,9.77
2018-10-18T21:19:03.483Z,12.83
2018-10-18T21:21:31.982Z,9.57
2018-10-18T21:24:00.278Z,14.47
2018-10-18T21:26:28.570Z,13.53
2018-10-18T21:28:56.883Z,8.00
2018-10-18T21:31:25.138Z,13.00
2018-10-18T21:33:53.643Z,11.63
2018-10-18T21:36:21.925Z,15.83
2018-10-18T21:38:50.194Z,16.83
2018-10-18T21:41:18.477Z,12.47
2018-10-18T21:43:46.782Z,16.00
2018-10-18T21:46:15.112Z,15.00
2018-10-18T21:48:43.602Z,15.50
2018-10-18T21:51:11.890Z,14.00
2018-10-18T21:53:40.154Z,16.07
2018-10-18T21:56:08.447Z,13.20
2018-10-18T21:58:36.731Z,13.17
2018-10-18T22:01:06.118Z,8.90
2018-10-18T22:03:35.486Z,14.23
2018-10-18T22:06:03.788Z,13.53
2018-10-18T22:08:33.062Z,7.97
2018-10-18T22:11:01.372Z,12.67
2018-10-18T22:13:29.656Z,13.00
2018-10-18T22:15:57.947Z,9.93
2018-10-18T22:18:26.219Z,15.73
2018-10-18T22:20:54.504Z,17.40
2018-10-18T22:23:22.827Z,10.13
2018-10-18T22:25:51.111Z,12.57
2018-10-18T22:28:19.429Z,12.60
2018-10-18T22:30:47.697Z,12.63
2018-10-18T22:33:16.033Z,9.20
2018-10-18T22:35:44.427Z,13.70
2018-10-18T22:38:12.693Z,9.07
2018-10-18T22:40:40.966Z,14.50
2018-10-18T22:43:09.326Z,9.90
2018-10-18T22:45:37.598Z,11.83
2018-10-18T22:48:06.006Z,21.63
2018-10-18T22:50:34.305Z,12.43
2018-10-18T22:53:02.632Z,16.40
2018-10-18T22:55:30.859Z,14.63
2018-10-18T22:57:59.152Z,15.90
2018-10-18T23:00:27.436Z,16.73
2018-10-18T23:02:55.761Z,10.03
2018-10-18T23:05:24.018Z,9.67
2018-10-18T23:07:52.378Z,18.03
2018-10-18T23:10:20.667Z,11.33
2018-10-18T23:12:48.927Z,17.90
2018-10-18T23:15:17.239Z,18.90
2018-10-18T23:17:45.494Z,12.10
2018-10-18T23:20:13.758Z,7.63
2018-10-18T23:22:42.033Z,14.43
2018-10-18T23:25:10.322Z,8.60
2018-10-18T23:27:38.598Z,29.43
2018-10-18T23:30:08.186Z,18.97
2018-10-18T23:32:36.525Z,14.23
2018-10-18T23:35:05.216Z,16.13
2018-10-18T23:37:33.489Z,11.57
2018-10-18T23:40:01.779Z,15.33
2018-10-18T23:42:30.062Z,15.27
2018-10-18T23:44:58.355Z,33.60
2018-10-18T23:47:26.626Z,10.50
2018-10-18T23:49:54.907Z,18.67
2018-10-18T23:52:23.166Z,12.47
2018-10-18T23:54:51.471Z,16.23
2018-10-18T23:57:19.795Z,21.10
2018-10-18T23:59:48.002Z,15.60
